EZY832R EGMC-LEMG
Flight info
| Callsign | EZY832R |
|---|---|
| Flight time | N/A |
| Altitude | 35000 |
| Route | DET M604 LYD BIDVA IBNID M195 MARUK N621 LELNA NOVAN DELOG CRISA N864 VULPE |
| Aircraft | A320/M-S/L |
Departure
| Time | 2026-04-24 08:25 |
|---|---|
| Airport | London Southend Airport (EGMC) |
Arrival
| Time | N/A |
|---|---|
| Airport | Málaga-Costa del Sol Airport (LEMG) |
| Time | Latitude | Longitude | Altitude | Speed | Heading |
|---|---|---|---|---|---|
| 2026-04-24 08:09 | 51.57082 | 0.70296 | 49 ft | 0 kts | 94° |
| 2026-04-24 08:15 | 51.57083 | 0.70295 | 49 ft | 2 kts | 93° |
| 2026-04-24 08:16 | 51.57083 | 0.70269 | 45 ft | 2 kts | 93° |
| 2026-04-24 08:16 | 51.57085 | 0.70242 | 43 ft | 2 kts | 113° |
| 2026-04-24 08:16 | 51.57094 | 0.70221 | 46 ft | 2 kts | 160° |
| 2026-04-24 08:16 | 51.57110 | 0.70216 | 44 ft | 2 kts | 185° |
| 2026-04-24 08:17 | 51.57122 | 0.70218 | 46 ft | 1 kts | 184° |
| 2026-04-24 08:17 | 51.57123 | 0.70218 | 46 ft | 0 kts | 184° |
| 2026-04-24 08:19 | 51.57102 | 0.70215 | 44 ft | 7 kts | 184° |
| 2026-04-24 08:19 | 51.57051 | 0.70210 | 49 ft | 7 kts | 184° |
| 2026-04-24 08:19 | 51.56996 | 0.70203 | 49 ft | 10 kts | 185° |
| 2026-04-24 08:20 | 51.56930 | 0.70187 | 49 ft | 9 kts | 196° |
| 2026-04-24 08:20 | 51.56890 | 0.70122 | 49 ft | 8 kts | 234° |
| 2026-04-24 08:20 | 51.56874 | 0.70037 | 49 ft | 10 kts | 276° |
| 2026-04-24 08:20 | 51.56889 | 0.69889 | 49 ft | 16 kts | 279° |
| 2026-04-24 08:21 | 51.56908 | 0.69695 | 49 ft | 20 kts | 279° |
| 2026-04-24 08:21 | 51.56919 | 0.69513 | 49 ft | 13 kts | 261° |
| 2026-04-24 08:21 | 51.56904 | 0.69379 | 49 ft | 14 kts | 260° |
| 2026-04-24 08:21 | 51.56886 | 0.69263 | 49 ft | 9 kts | 242° |
| 2026-04-24 08:22 | 51.56853 | 0.69187 | 49 ft | 8 kts | 234° |
| 2026-04-24 08:22 | 51.56839 | 0.69116 | 49 ft | 6 kts | 285° |
| 2026-04-24 08:22 | 51.56867 | 0.69070 | 49 ft | 7 kts | 324° |
| 2026-04-24 08:22 | 51.56897 | 0.69008 | 49 ft | 8 kts | 265° |
| 2026-04-24 08:23 | 51.56865 | 0.68933 | 49 ft | 12 kts | 234° |
| 2026-04-24 08:23 | 51.56786 | 0.68758 | 49 ft | 25 kts | 234° |
| 2026-04-24 08:23 | 51.56679 | 0.68520 | 49 ft | 25 kts | 233° |
| 2026-04-24 08:23 | 51.56590 | 0.68325 | 49 ft | 14 kts | 233° |
| 2026-04-24 08:24 | 51.56535 | 0.68242 | 49 ft | 7 kts | 205° |
| 2026-04-24 08:24 | 51.56521 | 0.68203 | 49 ft | 3 kts | 315° |
| 2026-04-24 08:24 | 51.56540 | 0.68214 | 49 ft | 5 kts | 37° |
| 2026-04-24 08:24 | 51.56575 | 0.68289 | 49 ft | 19 kts | 54° |
| 2026-04-24 08:25 | 51.56844 | 0.68887 | 49 ft | 110 kts | 54° |
| 2026-04-24 08:25 | 51.57420 | 0.70167 | 242 ft | 161 kts | 52° |
| 2026-04-24 08:25 | 51.58086 | 0.71649 | 1166 ft | 166 kts | 55° |
| 2026-04-24 08:25 | 51.58796 | 0.73220 | 1788 ft | 185 kts | 55° |
| 2026-04-24 08:26 | 51.59604 | 0.75003 | 2126 ft | 210 kts | 56° |
| 2026-04-24 08:26 | 51.60397 | 0.77122 | 2580 ft | 233 kts | 73° |
| 2026-04-24 08:26 | 51.60447 | 0.79779 | 3254 ft | 247 kts | 105° |
| 2026-04-24 08:26 | 51.59514 | 0.82118 | 4154 ft | 257 kts | 139° |
| 2026-04-24 08:27 | 51.57844 | 0.83200 | 5083 ft | 268 kts | 174° |
| 2026-04-24 08:27 | 51.55992 | 0.82627 | 5981 ft | 277 kts | 200° |
| 2026-04-24 08:27 | 51.54237 | 0.81274 | 6921 ft | 281 kts | 207° |
| 2026-04-24 08:27 | 51.52533 | 0.79684 | 7788 ft | 286 kts | 209° |
| 2026-04-24 08:28 | 51.50823 | 0.78014 | 8631 ft | 290 kts | 210° |
| 2026-04-24 08:28 | 51.49082 | 0.76331 | 9480 ft | 294 kts | 209° |
| 2026-04-24 08:28 | 51.47397 | 0.74423 | 10301 ft | 301 kts | 224° |
| 2026-04-24 08:28 | 51.46071 | 0.71710 | 10750 ft | 320 kts | 234° |
| 2026-04-24 08:29 | 51.44764 | 0.68659 | 11007 ft | 344 kts | 236° |
| 2026-04-24 08:29 | 51.43397 | 0.65362 | 11257 ft | 365 kts | 236° |
| 2026-04-24 08:29 | 51.42012 | 0.61998 | 11809 ft | 373 kts | 236° |
| 2026-04-24 08:29 | 51.40580 | 0.58530 | 12536 ft | 376 kts | 235° |
| 2026-04-24 08:30 | 51.39117 | 0.55011 | 13330 ft | 379 kts | 235° |
| 2026-04-24 08:30 | 51.37645 | 0.51501 | 14124 ft | 380 kts | 235° |
| 2026-04-24 08:30 | 51.36162 | 0.47987 | 14820 ft | 382 kts | 234° |
| 2026-04-24 08:30 | 51.34666 | 0.44453 | 15490 ft | 385 kts | 234° |
| 2026-04-24 08:31 | 51.33158 | 0.40902 | 16149 ft | 387 kts | 234° |
| 2026-04-24 08:31 | 51.31641 | 0.37335 | 16800 ft | 389 kts | 234° |
| 2026-04-24 08:31 | 51.30112 | 0.33744 | 17436 ft | 392 kts | 234° |
| 2026-04-24 08:31 | 51.28575 | 0.30139 | 18062 ft | 394 kts | 234° |
| 2026-04-24 08:32 | 51.27028 | 0.26513 | 18668 ft | 397 kts | 234° |
| 2026-04-24 08:32 | 51.25469 | 0.22859 | 19201 ft | 399 kts | 234° |
| 2026-04-24 08:32 | 51.23905 | 0.19193 | 19747 ft | 401 kts | 234° |
| 2026-04-24 08:32 | 51.22330 | 0.15510 | 20277 ft | 403 kts | 234° |
| 2026-04-24 08:33 | 51.20749 | 0.11818 | 20818 ft | 404 kts | 233° |
| 2026-04-24 08:33 | 51.19158 | 0.08115 | 21342 ft | 406 kts | 233° |
| 2026-04-24 08:33 | 51.17558 | 0.04400 | 21853 ft | 408 kts | 233° |
| 2026-04-24 08:33 | 51.15950 | 0.00673 | 22364 ft | 409 kts | 233° |
| 2026-04-24 08:34 | 51.14332 | -0.03078 | 22880 ft | 411 kts | 233° |
| 2026-04-24 08:34 | 51.12711 | -0.06839 | 23377 ft | 412 kts | 233° |
| 2026-04-24 08:34 | 51.11085 | -0.10606 | 23871 ft | 414 kts | 233° |
| 2026-04-24 08:34 | 51.09450 | -0.14388 | 24278 ft | 415 kts | 233° |
| 2026-04-24 08:35 | 51.07811 | -0.18178 | 24672 ft | 417 kts | 233° |
| 2026-04-24 08:35 | 51.06159 | -0.21990 | 25058 ft | 419 kts | 234° |
| 2026-04-24 08:35 | 51.04503 | -0.25807 | 25438 ft | 420 kts | 234° |
| 2026-04-24 08:35 | 51.02837 | -0.29636 | 25816 ft | 422 kts | 234° |
| 2026-04-24 08:36 | 51.01162 | -0.33477 | 26192 ft | 424 kts | 234° |
| 2026-04-24 08:36 | 50.99500 | -0.37278 | 26551 ft | 426 kts | 234° |
| 2026-04-24 08:36 | 50.97806 | -0.41146 | 26896 ft | 428 kts | 235° |
| 2026-04-24 08:36 | 50.96190 | -0.44822 | 27218 ft | 429 kts | 235° |
| 2026-04-24 08:37 | 50.94478 | -0.48712 | 27548 ft | 431 kts | 235° |
| 2026-04-24 08:37 | 50.92761 | -0.52612 | 27869 ft | 433 kts | 236° |
| 2026-04-24 08:37 | 50.91031 | -0.56544 | 28201 ft | 435 kts | 236° |
| 2026-04-24 08:37 | 50.89296 | -0.60482 | 28497 ft | 437 kts | 236° |
| 2026-04-24 08:38 | 50.87555 | -0.64433 | 28797 ft | 439 kts | 236° |
| 2026-04-24 08:38 | 50.85810 | -0.68394 | 29200 ft | 438 kts | 236° |
| 2026-04-24 08:38 | 50.84062 | -0.72347 | 29649 ft | 437 kts | 237° |
| 2026-04-24 08:38 | 50.82316 | -0.76285 | 30090 ft | 436 kts | 237° |
| 2026-04-24 08:39 | 50.80573 | -0.80208 | 30507 ft | 435 kts | 237° |
| 2026-04-24 08:39 | 50.78831 | -0.84116 | 30852 ft | 435 kts | 237° |
| 2026-04-24 08:39 | 50.77090 | -0.88016 | 31182 ft | 435 kts | 237° |
| 2026-04-24 08:39 | 50.75346 | -0.91920 | 31508 ft | 435 kts | 237° |
| 2026-04-24 08:40 | 50.73624 | -0.95838 | 31822 ft | 434 kts | 240° |
| 2026-04-24 08:40 | 50.72214 | -1.00031 | 32142 ft | 432 kts | 248° |
| 2026-04-24 08:40 | 50.71134 | -1.04448 | 32459 ft | 431 kts | 250° |
| 2026-04-24 08:40 | 50.70072 | -1.08868 | 32784 ft | 431 kts | 250° |
| 2026-04-24 08:41 | 50.69000 | -1.13288 | 33112 ft | 431 kts | 250° |
| 2026-04-24 08:41 | 50.67920 | -1.17707 | 33436 ft | 431 kts | 250° |
| 2026-04-24 08:41 | 50.66839 | -1.22113 | 33772 ft | 431 kts | 250° |
| 2026-04-24 08:41 | 50.65756 | -1.26518 | 34104 ft | 431 kts | 250° |
| 2026-04-24 08:42 | 50.64688 | -1.30865 | 34424 ft | 431 kts | 250° |
| 2026-04-24 08:42 | 50.63608 | -1.35263 | 34706 ft | 431 kts | 250° |
| 2026-04-24 08:42 | 50.62526 | -1.39672 | 34993 ft | 431 kts | 250° |
| 2026-04-24 08:42 | 50.61445 | -1.44069 | 35237 ft | 431 kts | 250° |
| 2026-04-24 08:43 | 50.60357 | -1.48480 | 35319 ft | 433 kts | 250° |
| 2026-04-24 08:43 | 50.58167 | -1.57330 | 35327 ft | 434 kts | 249° |
| 2026-04-24 08:44 | 50.55971 | -1.66173 | 35325 ft | 434 kts | 250° |
| 2026-04-24 08:44 | 50.53500 | -1.74821 | 35322 ft | 435 kts | 239° |
| 2026-04-24 08:45 | 50.49463 | -1.81913 | 35320 ft | 440 kts | 219° |
| 2026-04-24 08:45 | 50.44358 | -1.87236 | 35310 ft | 441 kts | 215° |
| 2026-04-24 08:46 | 50.39209 | -1.92472 | 35303 ft | 441 kts | 215° |
| 2026-04-24 08:46 | 50.34067 | -1.97702 | 35303 ft | 441 kts | 215° |
| 2026-04-24 08:47 | 50.28912 | -2.02908 | 35303 ft | 441 kts | 215° |
| 2026-04-24 08:47 | 50.24334 | -2.06425 | 35298 ft | 445 kts | 200° |
| 2026-04-24 08:47 | 50.20277 | -2.07809 | 35294 ft | 449 kts | 188° |
| 2026-04-24 08:48 | 50.18217 | -2.08082 | 35292 ft | 449 kts | 187° |
| 2026-04-24 08:48 | 50.11990 | -2.08883 | 35290 ft | 449 kts | 187° |
| 2026-04-24 08:49 | 50.04748 | -2.09818 | 35284 ft | 449 kts | 187° |
| 2026-04-24 08:49 | 49.99536 | -2.10515 | 35282 ft | 448 kts | 190° |
| 2026-04-24 08:50 | 49.93539 | -2.12862 | 35264 ft | 444 kts | 199° |
| 2026-04-24 08:50 | 49.87668 | -2.15625 | 35255 ft | 444 kts | 199° |
| 2026-04-24 08:51 | 49.81747 | -2.18369 | 35250 ft | 444 kts | 199° |
| 2026-04-24 08:51 | 49.75829 | -2.21103 | 35241 ft | 444 kts | 199° |
| 2026-04-24 08:52 | 49.69915 | -2.23844 | 35245 ft | 443 kts | 199° |
| 2026-04-24 08:52 | 49.64005 | -2.26584 | 35242 ft | 443 kts | 198° |
| 2026-04-24 08:53 | 49.58102 | -2.29317 | 35247 ft | 443 kts | 198° |
| 2026-04-24 08:53 | 49.52228 | -2.32023 | 35247 ft | 443 kts | 198° |
| 2026-04-24 08:54 | 49.46320 | -2.34739 | 35245 ft | 443 kts | 198° |
| 2026-04-24 08:54 | 49.40406 | -2.37447 | 35244 ft | 443 kts | 198° |
| 2026-04-24 08:55 | 49.34498 | -2.40143 | 35243 ft | 443 kts | 198° |
| 2026-04-24 08:55 | 49.28593 | -2.42837 | 35224 ft | 443 kts | 198° |
| 2026-04-24 08:56 | 49.22691 | -2.45516 | 35224 ft | 442 kts | 198° |
| 2026-04-24 08:56 | 49.16824 | -2.48181 | 35227 ft | 442 kts | 198° |
| 2026-04-24 08:57 | 49.10924 | -2.50860 | 35225 ft | 442 kts | 198° |
| 2026-04-24 08:57 | 49.05017 | -2.53525 | 35225 ft | 442 kts | 198° |
| 2026-04-24 08:58 | 48.99116 | -2.56170 | 35225 ft | 442 kts | 198° |
| 2026-04-24 08:58 | 48.93208 | -2.58816 | 35217 ft | 442 kts | 198° |
| 2026-04-24 08:59 | 48.87347 | -2.61450 | 35209 ft | 442 kts | 198° |
| 2026-04-24 08:59 | 48.81439 | -2.64097 | 35202 ft | 443 kts | 198° |
| 2026-04-24 09:00 | 48.75529 | -2.66736 | 35194 ft | 443 kts | 197° |
| 2026-04-24 09:00 | 48.69618 | -2.69358 | 35188 ft | 443 kts | 197° |
| 2026-04-24 09:01 | 48.63697 | -2.71980 | 35184 ft | 443 kts | 197° |
| 2026-04-24 09:01 | 48.57775 | -2.74599 | 35181 ft | 443 kts | 197° |
| 2026-04-24 09:02 | 48.51860 | -2.77208 | 35183 ft | 443 kts | 197° |
| 2026-04-24 09:02 | 48.45983 | -2.79799 | 35190 ft | 443 kts | 197° |
| 2026-04-24 09:03 | 48.40073 | -2.82401 | 35193 ft | 442 kts | 197° |
| 2026-04-24 09:03 | 48.34169 | -2.84989 | 35190 ft | 442 kts | 197° |
| 2026-04-24 09:04 | 48.28270 | -2.87568 | 35198 ft | 441 kts | 197° |
| 2026-04-24 09:04 | 48.22383 | -2.90136 | 35196 ft | 440 kts | 197° |
| 2026-04-24 09:05 | 48.16501 | -2.92692 | 35192 ft | 440 kts | 197° |
| 2026-04-24 09:05 | 48.10621 | -2.95244 | 35190 ft | 439 kts | 197° |
| 2026-04-24 09:06 | 48.04748 | -2.97788 | 35186 ft | 439 kts | 197° |
| 2026-04-24 09:06 | 47.98925 | -3.00306 | 35186 ft | 439 kts | 197° |
| 2026-04-24 09:07 | 47.93064 | -3.02832 | 35176 ft | 438 kts | 197° |
| 2026-04-24 09:07 | 47.84282 | -3.06599 | 35174 ft | 438 kts | 196° |
| 2026-04-24 09:08 | 47.78427 | -3.09103 | 35169 ft | 437 kts | 196° |
| 2026-04-24 09:08 | 47.72578 | -3.11604 | 35164 ft | 437 kts | 196° |
| 2026-04-24 09:09 | 47.66732 | -3.14104 | 35163 ft | 437 kts | 196° |
| 2026-04-24 09:09 | 47.60885 | -3.16595 | 35161 ft | 437 kts | 196° |
| 2026-04-24 09:10 | 47.55077 | -3.19063 | 35158 ft | 437 kts | 196° |
| 2026-04-24 09:10 | 47.49229 | -3.21548 | 35157 ft | 437 kts | 196° |
| 2026-04-24 09:11 | 47.43380 | -3.24015 | 35159 ft | 436 kts | 195° |
| 2026-04-24 09:11 | 47.37537 | -3.26461 | 35164 ft | 436 kts | 195° |
| 2026-04-24 09:12 | 47.31745 | -3.28899 | 35162 ft | 436 kts | 196° |
| 2026-04-24 09:12 | 47.25914 | -3.31349 | 35158 ft | 435 kts | 195° |
| 2026-04-24 09:13 | 47.20083 | -3.33794 | 35159 ft | 435 kts | 195° |
| 2026-04-24 09:13 | 47.14263 | -3.36227 | 35154 ft | 435 kts | 195° |
| 2026-04-24 09:14 | 47.08441 | -3.38649 | 35150 ft | 435 kts | 195° |
| 2026-04-24 09:14 | 47.02614 | -3.41068 | 35143 ft | 435 kts | 195° |
| 2026-04-24 09:15 | 46.96792 | -3.43479 | 35143 ft | 435 kts | 195° |
| 2026-04-24 09:15 | 46.91010 | -3.45876 | 35142 ft | 435 kts | 195° |
| 2026-04-24 09:16 | 46.85187 | -3.48287 | 35136 ft | 435 kts | 195° |
| 2026-04-24 09:16 | 46.79362 | -3.50690 | 35128 ft | 435 kts | 195° |
| 2026-04-24 09:17 | 46.73538 | -3.53086 | 35129 ft | 435 kts | 195° |
| 2026-04-24 09:17 | 46.67706 | -3.55475 | 35126 ft | 435 kts | 195° |
| 2026-04-24 09:18 | 46.61911 | -3.57843 | 35123 ft | 435 kts | 195° |
| 2026-04-24 09:18 | 46.56081 | -3.60224 | 35123 ft | 435 kts | 195° |
| 2026-04-24 09:19 | 46.50252 | -3.62611 | 35121 ft | 435 kts | 195° |
| 2026-04-24 09:19 | 46.44418 | -3.64982 | 35118 ft | 435 kts | 195° |
| 2026-04-24 09:20 | 46.38593 | -3.67336 | 35116 ft | 435 kts | 195° |
| 2026-04-24 09:20 | 46.32792 | -3.69639 | 35114 ft | 435 kts | 191° |
| 2026-04-24 09:21 | 46.26802 | -3.70724 | 35111 ft | 434 kts | 185° |
| 2026-04-24 09:21 | 46.20795 | -3.71618 | 35107 ft | 434 kts | 185° |
| 2026-04-24 09:22 | 46.14785 | -3.72514 | 35107 ft | 434 kts | 185° |
| 2026-04-24 09:22 | 46.08776 | -3.73410 | 35104 ft | 434 kts | 185° |
| 2026-04-24 09:23 | 46.02771 | -3.74301 | 35105 ft | 434 kts | 185° |
| 2026-04-24 09:23 | 45.96766 | -3.75199 | 35100 ft | 434 kts | 185° |
| 2026-04-24 09:24 | 45.93754 | -3.75645 | 35252 ft | 434 kts | 185° |
| 2026-04-24 09:24 | 45.90756 | -3.76083 | 35575 ft | 433 kts | 185° |
| 2026-04-24 09:24 | 45.87800 | -3.76516 | 35875 ft | 432 kts | 185° |
| 2026-04-24 09:24 | 45.84806 | -3.76954 | 36147 ft | 432 kts | 185° |
| 2026-04-24 09:25 | 45.81819 | -3.77395 | 36411 ft | 431 kts | 185° |
| 2026-04-24 09:25 | 45.78833 | -3.77839 | 36668 ft | 431 kts | 185° |
| 2026-04-24 09:25 | 45.75854 | -3.78282 | 36919 ft | 431 kts | 185° |
| 2026-04-24 09:25 | 45.72874 | -3.78722 | 37077 ft | 431 kts | 185° |
| 2026-04-24 09:26 | 45.66912 | -3.79590 | 37100 ft | 430 kts | 185° |
| 2026-04-24 09:26 | 45.60956 | -3.80449 | 37093 ft | 430 kts | 185° |
| 2026-04-24 09:27 | 45.55009 | -3.81317 | 37092 ft | 430 kts | 185° |
| 2026-04-24 09:27 | 45.49060 | -3.82197 | 37093 ft | 429 kts | 185° |
| 2026-04-24 09:28 | 45.43158 | -3.83061 | 37097 ft | 429 kts | 185° |
| 2026-04-24 09:28 | 45.37213 | -3.83922 | 37093 ft | 429 kts | 185° |
| 2026-04-24 09:29 | 45.31269 | -3.84775 | 37092 ft | 429 kts | 185° |
| 2026-04-24 09:29 | 45.25332 | -3.85624 | 37092 ft | 429 kts | 185° |
| 2026-04-24 09:30 | 45.19393 | -3.86478 | 37091 ft | 429 kts | 185° |
| 2026-04-24 09:30 | 45.13459 | -3.87336 | 37090 ft | 429 kts | 185° |
| 2026-04-24 09:31 | 45.07526 | -3.88189 | 37081 ft | 429 kts | 185° |
| 2026-04-24 09:31 | 45.01628 | -3.89038 | 37086 ft | 429 kts | 185° |
| 2026-04-24 09:32 | 44.95691 | -3.89883 | 37087 ft | 428 kts | 185° |
| 2026-04-24 09:32 | 44.89756 | -3.90727 | 37082 ft | 428 kts | 185° |
| 2026-04-24 09:33 | 44.83818 | -3.91565 | 37082 ft | 428 kts | 185° |
| 2026-04-24 09:33 | 44.77926 | -3.92404 | 37081 ft | 428 kts | 185° |
| 2026-04-24 09:34 | 44.72002 | -3.93254 | 37083 ft | 428 kts | 185° |
| 2026-04-24 09:34 | 44.66066 | -3.94100 | 37084 ft | 428 kts | 185° |
| 2026-04-24 09:35 | 44.60136 | -3.94927 | 37083 ft | 428 kts | 185° |
| 2026-04-24 09:35 | 44.54213 | -3.95752 | 37084 ft | 428 kts | 185° |
| 2026-04-24 09:36 | 44.48328 | -3.96586 | 37083 ft | 428 kts | 185° |
| 2026-04-24 09:36 | 44.42407 | -3.97425 | 37080 ft | 428 kts | 185° |
| 2026-04-24 09:37 | 44.36478 | -3.98251 | 37077 ft | 428 kts | 185° |
| 2026-04-24 09:37 | 44.30553 | -3.99059 | 37083 ft | 428 kts | 185° |
| 2026-04-24 09:38 | 44.24617 | -3.99739 | 37080 ft | 428 kts | 184° |
| 2026-04-24 09:38 | 44.18676 | -4.00381 | 37084 ft | 428 kts | 184° |
| 2026-04-24 09:39 | 44.12742 | -4.01046 | 37086 ft | 428 kts | 184° |
| 2026-04-24 09:39 | 44.06846 | -4.01731 | 37085 ft | 428 kts | 184° |
| 2026-04-24 09:40 | 44.00908 | -4.02418 | 37091 ft | 428 kts | 184° |
| 2026-04-24 09:40 | 43.94974 | -4.03093 | 37096 ft | 428 kts | 184° |
| 2026-04-24 09:41 | 43.89038 | -4.03763 | 37096 ft | 428 kts | 184° |
| 2026-04-24 09:41 | 43.83107 | -4.04424 | 37102 ft | 427 kts | 184° |
| 2026-04-24 09:42 | 43.77222 | -4.05084 | 37102 ft | 427 kts | 184° |
| 2026-04-24 09:42 | 43.71299 | -4.05760 | 37106 ft | 427 kts | 184° |
| 2026-04-24 09:43 | 43.65380 | -4.06430 | 37107 ft | 426 kts | 184° |
| 2026-04-24 09:43 | 43.59472 | -4.07085 | 37105 ft | 426 kts | 184° |
| 2026-04-24 09:44 | 43.53563 | -4.07742 | 37097 ft | 426 kts | 184° |
| 2026-04-24 09:44 | 43.47658 | -4.08406 | 37101 ft | 425 kts | 184° |
| 2026-04-24 09:45 | 43.41754 | -4.09065 | 37100 ft | 425 kts | 184° |
| 2026-04-24 09:45 | 43.35896 | -4.09726 | 37099 ft | 425 kts | 184° |
| 2026-04-24 09:46 | 43.30002 | -4.10384 | 37098 ft | 425 kts | 184° |
| 2026-04-24 09:46 | 43.24108 | -4.11025 | 37104 ft | 425 kts | 184° |
| 2026-04-24 09:47 | 43.18215 | -4.11672 | 37108 ft | 425 kts | 184° |
| 2026-04-24 09:47 | 43.12315 | -4.12332 | 37114 ft | 424 kts | 184° |
| 2026-04-24 09:48 | 43.06428 | -4.12985 | 37117 ft | 425 kts | 184° |
| 2026-04-24 09:48 | 43.00576 | -4.13621 | 37117 ft | 425 kts | 184° |
| 2026-04-24 09:49 | 42.94687 | -4.14269 | 37122 ft | 424 kts | 184° |
| 2026-04-24 09:49 | 42.88803 | -4.14919 | 37124 ft | 424 kts | 184° |
| 2026-04-24 09:50 | 42.82922 | -4.15564 | 37124 ft | 424 kts | 184° |
| 2026-04-24 09:50 | 42.77044 | -4.16208 | 37124 ft | 424 kts | 184° |
| 2026-04-24 09:51 | 42.71201 | -4.16839 | 37127 ft | 424 kts | 184° |
| 2026-04-24 09:51 | 42.65325 | -4.17468 | 37127 ft | 423 kts | 184° |
| 2026-04-24 09:52 | 42.59448 | -4.18118 | 37133 ft | 423 kts | 184° |
| 2026-04-24 09:52 | 42.53583 | -4.18760 | 37133 ft | 423 kts | 184° |
| 2026-04-24 09:53 | 42.47719 | -4.19389 | 37134 ft | 422 kts | 184° |
| 2026-04-24 09:53 | 42.41858 | -4.20012 | 37136 ft | 422 kts | 184° |
| 2026-04-24 09:54 | 42.36003 | -4.20646 | 37136 ft | 422 kts | 184° |
| 2026-04-24 09:54 | 42.30154 | -4.21286 | 37135 ft | 422 kts | 184° |
| 2026-04-24 09:55 | 42.24306 | -4.21917 | 37138 ft | 421 kts | 184° |
| 2026-04-24 09:55 | 42.18499 | -4.22537 | 37138 ft | 421 kts | 184° |
| 2026-04-24 09:56 | 42.12660 | -4.23165 | 37134 ft | 421 kts | 184° |
| 2026-04-24 09:56 | 42.06825 | -4.23788 | 37137 ft | 420 kts | 184° |
| 2026-04-24 09:57 | 42.00998 | -4.24411 | 37136 ft | 420 kts | 184° |
| 2026-04-24 09:57 | 41.95172 | -4.25029 | 37134 ft | 420 kts | 184° |
| 2026-04-24 09:58 | 41.90331 | -4.25535 | 37134 ft | 420 kts | 184° |
| 2026-04-24 09:58 | 41.84510 | -4.26146 | 37133 ft | 419 kts | 184° |
| 2026-04-24 09:59 | 41.77751 | -4.26863 | 37128 ft | 419 kts | 184° |
| 2026-04-24 09:59 | 41.71930 | -4.27486 | 37124 ft | 419 kts | 184° |
| 2026-04-24 10:00 | 41.67091 | -4.27998 | 37125 ft | 419 kts | 184° |
| 2026-04-24 10:00 | 41.61276 | -4.28612 | 37120 ft | 419 kts | 184° |
| 2026-04-24 10:01 | 41.55461 | -4.29218 | 37115 ft | 419 kts | 184° |
| 2026-04-24 10:01 | 41.49646 | -4.29823 | 37115 ft | 419 kts | 184° |
| 2026-04-24 10:02 | 41.43870 | -4.30432 | 37116 ft | 419 kts | 184° |
| 2026-04-24 10:02 | 41.38052 | -4.31040 | 37113 ft | 420 kts | 184° |
| 2026-04-24 10:03 | 41.32229 | -4.31647 | 37105 ft | 420 kts | 184° |
| 2026-04-24 10:03 | 41.26405 | -4.32252 | 37113 ft | 420 kts | 184° |
| 2026-04-24 10:04 | 41.20573 | -4.32861 | 37117 ft | 420 kts | 184° |
| 2026-04-24 10:04 | 41.14747 | -4.33471 | 37119 ft | 420 kts | 184° |
| 2026-04-24 10:05 | 41.08965 | -4.34070 | 37115 ft | 420 kts | 184° |
| 2026-04-24 10:05 | 41.03143 | -4.34671 | 37115 ft | 420 kts | 184° |
| 2026-04-24 10:06 | 40.94417 | -4.35571 | 37114 ft | 419 kts | 184° |
| 2026-04-24 10:07 | 40.88602 | -4.36177 | 37119 ft | 419 kts | 184° |
| 2026-04-24 10:07 | 40.82789 | -4.36776 | 37116 ft | 419 kts | 184° |
| 2026-04-24 10:08 | 40.77009 | -4.37364 | 37119 ft | 419 kts | 184° |
| 2026-04-24 10:08 | 40.71197 | -4.37950 | 37117 ft | 419 kts | 184° |
| 2026-04-24 10:09 | 40.65387 | -4.38539 | 37119 ft | 419 kts | 184° |
| 2026-04-24 10:09 | 40.59580 | -4.39135 | 37118 ft | 419 kts | 184° |
| 2026-04-24 10:10 | 40.53765 | -4.39740 | 37116 ft | 419 kts | 184° |
| 2026-04-24 10:10 | 40.47995 | -4.40332 | 37115 ft | 419 kts | 184° |
| 2026-04-24 10:11 | 40.42177 | -4.40917 | 37121 ft | 419 kts | 184° |
| 2026-04-24 10:11 | 40.36368 | -4.41502 | 37123 ft | 419 kts | 184° |
| 2026-04-24 10:12 | 40.30549 | -4.42087 | 37125 ft | 419 kts | 184° |
| 2026-04-24 10:12 | 40.24733 | -4.42671 | 37118 ft | 419 kts | 184° |
| 2026-04-24 10:13 | 40.18920 | -4.43263 | 37124 ft | 419 kts | 184° |
| 2026-04-24 10:13 | 40.13110 | -4.43851 | 37122 ft | 419 kts | 184° |
| 2026-04-24 10:14 | 40.07339 | -4.44429 | 37123 ft | 419 kts | 184° |
| 2026-04-24 10:14 | 40.01528 | -4.45021 | 37119 ft | 418 kts | 184° |
| 2026-04-24 10:15 | 39.95722 | -4.45605 | 37120 ft | 418 kts | 184° |
| 2026-04-24 10:15 | 39.89919 | -4.46179 | 37119 ft | 418 kts | 184° |
| 2026-04-24 10:16 | 39.84113 | -4.46757 | 37118 ft | 418 kts | 184° |
| 2026-04-24 10:16 | 39.78313 | -4.47336 | 37109 ft | 418 kts | 184° |
| 2026-04-24 10:17 | 39.72512 | -4.47915 | 37110 ft | 418 kts | 184° |
| 2026-04-24 10:17 | 39.66706 | -4.48494 | 37101 ft | 418 kts | 184° |
| 2026-04-24 10:18 | 39.60903 | -4.49069 | 37105 ft | 418 kts | 184° |
| 2026-04-24 10:18 | 39.55130 | -4.49636 | 37103 ft | 419 kts | 184° |
| 2026-04-24 10:19 | 39.49318 | -4.50209 | 37101 ft | 419 kts | 184° |
| 2026-04-24 10:19 | 39.43506 | -4.50781 | 37093 ft | 419 kts | 184° |
| 2026-04-24 10:20 | 39.37689 | -4.51351 | 37098 ft | 419 kts | 184° |
| 2026-04-24 10:20 | 39.31903 | -4.51918 | 37094 ft | 419 kts | 184° |
| 2026-04-24 10:21 | 39.26084 | -4.52494 | 37097 ft | 419 kts | 184° |
| 2026-04-24 10:21 | 39.20265 | -4.53064 | 37094 ft | 419 kts | 184° |
| 2026-04-24 10:22 | 39.14444 | -4.53627 | 37100 ft | 419 kts | 184° |
| 2026-04-24 10:22 | 39.08626 | -4.54195 | 37099 ft | 419 kts | 185° |
| 2026-04-24 10:23 | 39.02806 | -4.54767 | 37103 ft | 419 kts | 185° |
| 2026-04-24 10:23 | 38.96996 | -4.55335 | 37102 ft | 419 kts | 185° |
| 2026-04-24 10:24 | 38.91233 | -4.56021 | 37106 ft | 418 kts | 188° |
| 2026-04-24 10:24 | 38.85488 | -4.57206 | 37101 ft | 418 kts | 190° |
| 2026-04-24 10:25 | 38.79773 | -4.58533 | 37114 ft | 417 kts | 190° |
| 2026-04-24 10:25 | 38.74050 | -4.59787 | 37114 ft | 417 kts | 189° |
| 2026-04-24 10:26 | 38.68323 | -4.60967 | 37105 ft | 417 kts | 189° |
| 2026-04-24 10:26 | 38.62602 | -4.62135 | 37116 ft | 416 kts | 189° |
| 2026-04-24 10:27 | 38.56880 | -4.63314 | 37120 ft | 416 kts | 189° |
| 2026-04-24 10:27 | 38.51200 | -4.64490 | 37114 ft | 416 kts | 189° |
| 2026-04-24 10:28 | 38.45481 | -4.65677 | 37102 ft | 416 kts | 189° |
| 2026-04-24 10:28 | 38.39764 | -4.66861 | 37097 ft | 416 kts | 189° |
| 2026-04-24 10:29 | 38.34041 | -4.68034 | 37092 ft | 416 kts | 189° |
| 2026-04-24 10:29 | 38.28322 | -4.69204 | 37108 ft | 417 kts | 189° |
| 2026-04-24 10:30 | 38.22592 | -4.70377 | 37107 ft | 417 kts | 189° |
| 2026-04-24 10:30 | 38.16904 | -4.71539 | 37100 ft | 417 kts | 189° |
| 2026-04-24 10:31 | 38.11173 | -4.72713 | 37101 ft | 417 kts | 189° |
| 2026-04-24 10:31 | 38.05439 | -4.73888 | 37043 ft | 418 kts | 189° |
| 2026-04-24 10:31 | 38.02560 | -4.74474 | 36619 ft | 419 kts | 189° |
| 2026-04-24 10:32 | 37.99681 | -4.75058 | 36044 ft | 417 kts | 189° |
| 2026-04-24 10:32 | 37.96818 | -4.75640 | 35489 ft | 416 kts | 189° |
| 2026-04-24 10:32 | 37.94002 | -4.76212 | 34953 ft | 415 kts | 188° |
| 2026-04-24 10:32 | 37.91152 | -4.76792 | 34420 ft | 414 kts | 188° |
| 2026-04-24 10:33 | 37.88312 | -4.77370 | 33869 ft | 413 kts | 188° |
| 2026-04-24 10:33 | 37.85470 | -4.77950 | 33272 ft | 414 kts | 188° |
| 2026-04-24 10:33 | 37.82617 | -4.78533 | 32682 ft | 417 kts | 188° |
| 2026-04-24 10:33 | 37.79738 | -4.79105 | 32108 ft | 420 kts | 186° |
| 2026-04-24 10:34 | 37.76823 | -4.79299 | 31548 ft | 422 kts | 178° |
| 2026-04-24 10:34 | 37.73894 | -4.78934 | 30997 ft | 424 kts | 170° |
| 2026-04-24 10:34 | 37.71011 | -4.78055 | 30456 ft | 428 kts | 165° |
| 2026-04-24 10:34 | 37.68132 | -4.77039 | 29876 ft | 431 kts | 165° |
| 2026-04-24 10:35 | 37.65236 | -4.76022 | 29275 ft | 434 kts | 165° |
| 2026-04-24 10:35 | 37.62315 | -4.75002 | 28658 ft | 436 kts | 165° |
| 2026-04-24 10:35 | 37.59379 | -4.73985 | 28063 ft | 439 kts | 165° |
| 2026-04-24 10:35 | 37.56427 | -4.72967 | 27487 ft | 438 kts | 165° |
| 2026-04-24 10:36 | 37.53560 | -4.71975 | 26927 ft | 429 kts | 165° |
| 2026-04-24 10:36 | 37.50713 | -4.70985 | 26371 ft | 420 kts | 165° |
| 2026-04-24 10:36 | 37.47918 | -4.70010 | 25825 ft | 413 kts | 165° |
| 2026-04-24 10:36 | 37.45176 | -4.69053 | 25294 ft | 406 kts | 165° |
| 2026-04-24 10:37 | 37.42473 | -4.68112 | 24772 ft | 400 kts | 165° |
| 2026-04-24 10:37 | 37.39804 | -4.67185 | 24256 ft | 394 kts | 164° |
| 2026-04-24 10:37 | 37.37275 | -4.65930 | 23750 ft | 389 kts | 152° |
| 2026-04-24 10:37 | 37.34946 | -4.64235 | 23156 ft | 385 kts | 150° |
| 2026-04-24 10:38 | 37.32646 | -4.62544 | 22578 ft | 381 kts | 150° |
| 2026-04-24 10:38 | 37.30376 | -4.60871 | 21992 ft | 377 kts | 150° |
| 2026-04-24 10:38 | 37.28097 | -4.59265 | 21431 ft | 373 kts | 156° |
| 2026-04-24 10:38 | 37.25637 | -4.58312 | 20870 ft | 369 kts | 171° |
| 2026-04-24 10:39 | 37.23085 | -4.58135 | 20327 ft | 366 kts | 179° |
| 2026-04-24 10:39 | 37.20575 | -4.58120 | 19794 ft | 365 kts | 180° |
| 2026-04-24 10:39 | 37.18046 | -4.58107 | 19273 ft | 363 kts | 180° |
| 2026-04-24 10:39 | 37.15528 | -4.58092 | 18758 ft | 361 kts | 180° |
| 2026-04-24 10:40 | 37.13020 | -4.58073 | 18221 ft | 360 kts | 180° |
| 2026-04-24 10:40 | 37.10519 | -4.58053 | 17635 ft | 359 kts | 180° |
| 2026-04-24 10:40 | 37.08031 | -4.58032 | 17061 ft | 357 kts | 180° |
| 2026-04-24 10:40 | 37.05550 | -4.58010 | 16499 ft | 356 kts | 180° |
| 2026-04-24 10:41 | 37.03073 | -4.57989 | 15947 ft | 355 kts | 180° |
| 2026-04-24 10:41 | 37.00604 | -4.57967 | 15402 ft | 355 kts | 180° |
| 2026-04-24 10:41 | 36.98139 | -4.57948 | 14870 ft | 353 kts | 180° |
| 2026-04-24 10:41 | 36.95726 | -4.57877 | 14341 ft | 340 kts | 174° |
| 2026-04-24 10:42 | 36.93478 | -4.57157 | 13817 ft | 330 kts | 157° |
| 2026-04-24 10:42 | 36.91559 | -4.55678 | 13294 ft | 321 kts | 140° |
| 2026-04-24 10:42 | 36.89995 | -4.53764 | 12905 ft | 308 kts | 136° |
| 2026-04-24 10:42 | 36.88506 | -4.51904 | 12524 ft | 298 kts | 136° |
| 2026-04-24 10:43 | 36.87049 | -4.50094 | 12141 ft | 294 kts | 136° |
| 2026-04-24 10:43 | 36.85618 | -4.48329 | 11776 ft | 292 kts | 136° |
| 2026-04-24 10:43 | 36.84173 | -4.46548 | 11422 ft | 291 kts | 136° |
| 2026-04-24 10:43 | 36.82738 | -4.44780 | 11150 ft | 289 kts | 136° |
| 2026-04-24 10:44 | 36.81311 | -4.43021 | 10886 ft | 288 kts | 136° |
| 2026-04-24 10:44 | 36.79893 | -4.41276 | 10623 ft | 286 kts | 136° |
| 2026-04-24 10:44 | 36.78477 | -4.39535 | 10362 ft | 285 kts | 136° |
| 2026-04-24 10:44 | 36.77069 | -4.37804 | 10103 ft | 284 kts | 136° |